Time;durP1;ratioP1;P1;durP2;ratioP2;P2;SDS_P1;SDS_P2;PMS_P1;PMS_P2;Temp;Humidity;BMP_temperature;BMP_pressure;BME280_temperature;BME280_humidity;BME280_pressure;Samples;Min_cycle;Max_cycle;Signal;HPM_P1;HPM_P2
2022/07/16 00:02:00;;;;;;;;;5.33;4.33;;;;;;;;5005935;28;51084;-65
2022/07/16 00:04:25;;;;;;;;;5.00;4.00;;;;;;;;4992812;28;51038;-64
2022/07/16 00:06:50;;;;;;;;;0.67;0.33;;;;;;;;5010411;28;51853;-65
2022/07/16 00:09:15;;;;;;;;;3.67;3.67;;;;;;;;5008041;28;51119;-64
2022/07/16 00:11:40;;;;;;;;;4.00;4.00;;;;;;;;5006368;28;51317;-64
2022/07/16 00:14:06;;;;;;;;;3.00;3.00;;;;;;;;4995118;28;51301;-66
2022/07/16 00:16:31;;;;;;;;;4.67;4.00;;;;;;;;5004097;28;51066;-65
2022/07/16 00:21:40;;;;;;;;;3.33;3.33;;;;;;;;5007846;28;51179;-64
2022/07/16 00:24:07;;;;;;;;;3.67;3.00;;;;;;;;5008889;28;51390;-64
2022/07/16 00:26:32;;;;;;;;;2.33;2.00;;;;;;;;5011064;28;50975;-65
2022/07/16 00:28:57;;;;;;;;;4.00;3.33;;;;;;;;5011236;28;50966;-65
2022/07/16 00:31:23;;;;;;;;;5.33;5.00;;;;;;;;4990859;28;51044;-65
2022/07/16 00:33:48;;;;;;;;;5.00;4.00;;;;;;;;5009324;28;51227;-65
2022/07/16 00:36:13;;;;;;;;;3.67;3.67;;;;;;;;5010299;28;52021;-66
2022/07/16 00:38:38;;;;;;;;;4.00;3.33;;;;;;;;5011598;28;50926;-66
2022/07/16 00:41:04;;;;;;;;;2.00;2.00;;;;;;;;5006180;28;51064;-65
2022/07/16 00:43:29;;;;;;;;;4.00;4.00;;;;;;;;4993414;28;51374;-65
2022/07/16 00:45:54;;;;;;;;;4.00;3.50;;;;;;;;4992850;28;53882;-65
2022/07/16 00:48:19;;;;;;;;;5.00;4.33;;;;;;;;4993504;28;53522;-65
2022/07/16 00:50:45;;;;;;;;;11.00;10.00;;;;;;;;5009091;28;51996;-64
2022/07/16 00:53:10;;;;;;;;;5.00;4.00;;;;;;;;5012024;28;51014;-66
2022/07/16 00:55:36;;;;;;;;;4.67;4.67;;;;;;;;5011041;28;51876;-65
2022/07/16 00:58:01;;;;;;;;;6.00;6.00;;;;;;;;5001200;28;51021;-65
2022/07/16 01:00:26;;;;;;;;;6.33;5.00;;;;;;;;5005001;28;51226;-65
2022/07/16 01:02:52;;;;;;;;;5.67;5.67;;;;;;;;5011525;28;51100;-65
2022/07/16 01:05:17;;;;;;;;;5.00;4.33;;;;;;;;5014327;28;51153;-65
2022/07/16 01:07:43;;;;;;;;;5.00;5.00;;;;;;;;5014553;28;51068;-64
2022/07/16 01:10:09;;;;;;;;;5.33;5.00;;;;;;;;5013912;28;51130;-66
2022/07/16 01:12:34;;;;;;;;;4.00;4.00;;;;;;;;4996565;28;51144;-65
2022/07/16 01:15:00;;;;;;;;;5.67;5.00;;;;;;;;5013556;28;51923;-65
2022/07/16 01:17:25;;;;;;;;;4.00;4.00;;;;;;;;5005011;28;51036;-65
2022/07/16 01:19:50;;;;;;;;;4.33;4.33;;;;;;;;5007080;28;51093;-65
2022/07/16 01:22:20;;;;;;;;;4.00;4.00;;;;;;;;5010686;28;50801;-65
2022/07/16 01:24:45;;;;;;;;;5.00;4.67;;;;;;;;4996140;28;54091;-65
2022/07/16 01:27:10;;;;;;;;;2.67;2.67;;;;;;;;4996298;28;51031;-65
2022/07/16 01:29:35;;;;;;;;;4.00;4.00;;;;;;;;5013634;28;50978;-65
2022/07/16 01:32:01;;;;;;;;;6.00;5.00;;;;;;;;5010167;28;51339;-65
2022/07/16 01:34:26;;;;;;;;;4.00;4.00;;;;;;;;5007799;28;51856;-64
2022/07/16 01:36:58;;;;;;;;;4.00;4.00;;;;;;;;5010729;28;51058;-65
2022/07/16 01:39:24;;;;;;;;;3.00;3.00;;;;;;;;5014179;28;51020;-64
2022/07/16 01:41:51;;;;;;;;;4.00;4.00;;;;;;;;5010774;28;51186;-66
2022/07/16 01:44:16;;;;;;;;;3.00;3.00;;;;;;;;5013974;28;51931;-64
2022/07/16 01:46:41;;;;;;;;;4.00;4.00;;;;;;;;5012861;28;51130;-64
2022/07/16 01:49:06;;;;;;;;;4.33;4.00;;;;;;;;4996864;28;51138;-65
2022/07/16 01:51:32;;;;;;;;;5.67;5.00;;;;;;;;5012587;28;51147;-65
2022/07/16 01:53:57;;;;;;;;;6.00;5.00;;;;;;;;5010191;28;51301;-64
2022/07/16 01:56:22;;;;;;;;;4.67;4.00;;;;;;;;4995955;28;51206;-65
2022/07/16 01:58:47;;;;;;;;;3.67;3.67;;;;;;;;5014377;28;50982;-64
2022/07/16 02:01:12;;;;;;;;;7.00;6.00;;;;;;;;5009707;28;51271;-65
2022/07/16 02:03:38;;;;;;;;;4.00;4.00;;;;;;;;4983547;28;51053;-65
2022/07/16 02:06:03;;;;;;;;;6.00;5.00;;;;;;;;5013902;28;51146;-66
2022/07/16 02:08:28;;;;;;;;;4.33;4.33;;;;;;;;5013807;28;50909;-66
2022/07/16 02:10:53;;;;;;;;;5.00;5.00;;;;;;;;5013284;28;51490;-65
2022/07/16 02:13:18;;;;;;;;;5.33;4.67;;;;;;;;4994885;28;51335;-65
2022/07/16 02:15:43;;;;;;;;;4.00;4.00;;;;;;;;5013977;28;51117;-66
2022/07/16 02:18:09;;;;;;;;;3.33;3.33;;;;;;;;5014276;28;51026;-64
2022/07/16 02:20:34;;;;;;;;;5.00;4.67;;;;;;;;4995476;28;50932;-66
2022/07/16 02:22:59;;;;;;;;;4.00;4.00;;;;;;;;5007500;28;51059;-64
2022/07/16 02:25:24;;;;;;;;;5.00;4.67;;;;;;;;5006137;28;51102;-64
2022/07/16 02:28:08;;;;;;;;;4.67;4.67;;;;;;;;4995902;28;51166;-65
2022/07/16 02:30:51;;;;;;;;;5.00;4.67;;;;;;;;5013404;28;51236;-65
2022/07/16 02:33:18;;;;;;;;;7.33;5.67;;;;;;;;5013250;28;51053;-65
2022/07/16 02:35:43;;;;;;;;;5.67;5.00;;;;;;;;5011973;28;51020;-65
2022/07/16 02:38:09;;;;;;;;;4.33;4.33;;;;;;;;5012676;28;51231;-64
2022/07/16 02:40:34;;;;;;;;;5.00;5.00;;;;;;;;5008197;28;51268;-65
2022/07/16 02:43:00;;;;;;;;;6.00;4.67;;;;;;;;4991123;28;51886;-65
2022/07/16 02:45:26;;;;;;;;;5.00;5.00;;;;;;;;5008434;28;51162;-64
2022/07/16 02:47:51;;;;;;;;;5.00;5.00;;;;;;;;5013025;28;51068;-65
2022/07/16 02:50:17;;;;;;;;;4.00;4.00;;;;;;;;4995493;28;51348;-65
2022/07/16 02:52:42;;;;;;;;;5.00;5.00;;;;;;;;5005101;28;51879;-65
2022/07/16 02:55:08;;;;;;;;;4.67;4.00;;;;;;;;5006597;28;50967;-65
2022/07/16 02:57:33;;;;;;;;;5.00;5.00;;;;;;;;5009374;28;50848;-64
2022/07/16 02:59:58;;;;;;;;;5.67;4.67;;;;;;;;4995645;28;50909;-64
2022/07/16 03:02:24;;;;;;;;;6.00;5.67;;;;;;;;5007298;28;51750;-65
2022/07/16 03:04:49;;;;;;;;;5.00;5.00;;;;;;;;5010381;28;51066;-64
2022/07/16 03:07:14;;;;;;;;;5.33;5.00;;;;;;;;5011823;28;51159;-64
2022/07/16 03:09:39;;;;;;;;;5.00;5.00;;;;;;;;5006810;28;51194;-64
2022/07/16 03:12:05;;;;;;;;;4.33;4.00;;;;;;;;5008946;28;51852;-64
2022/07/16 03:14:30;;;;;;;;;5.00;5.00;;;;;;;;5010187;28;51450;-65
2022/07/16 03:16:55;;;;;;;;;7.00;6.00;;;;;;;;5002318;28;51390;-64
2022/07/16 03:19:20;;;;;;;;;6.67;6.67;;;;;;;;5013387;28;51165;-65
2022/07/16 03:21:46;;;;;;;;;6.67;6.33;;;;;;;;5009322;28;51371;-64
2022/07/16 03:24:11;;;;;;;;;5.00;4.00;;;;;;;;5001670;28;52715;-64
2022/07/16 03:26:36;;;;;;;;;5.33;4.67;;;;;;;;5013197;28;51244;-64
2022/07/16 03:29:01;;;;;;;;;6.33;5.67;;;;;;;;5012764;28;50993;-64
2022/07/16 03:31:26;;;;;;;;;7.00;6.00;;;;;;;;5010615;28;51080;-64
2022/07/16 03:33:51;;;;;;;;;5.67;5.00;;;;;;;;4994882;28;51208;-65
2022/07/16 03:36:17;;;;;;;;;4.00;4.00;;;;;;;;5008583;28;51006;-66
2022/07/16 03:38:58;;;;;;;;;5.33;5.33;;;;;;;;4975793;28;51152;-65
2022/07/16 03:41:24;;;;;;;;;8.00;7.00;;;;;;;;5009516;28;51056;-65
2022/07/16 03:43:49;;;;;;;;;4.33;4.33;;;;;;;;5012960;28;50916;-65
2022/07/16 03:46:14;;;;;;;;;6.00;4.33;;;;;;;;5011356;28;50986;-68
2022/07/16 03:48:40;;;;;;;;;4.67;4.00;;;;;;;;5004696;28;51336;-65
2022/07/16 03:51:06;;;;;;;;;6.33;6.00;;;;;;;;5011639;28;52144;-65
2022/07/16 03:53:32;;;;;;;;;13.33;12.67;;;;;;;;5012596;28;51130;-66
2022/07/16 03:55:57;;;;;;;;;4.33;4.33;;;;;;;;4994314;28;51051;-65
2022/07/16 03:58:22;;;;;;;;;6.67;6.67;;;;;;;;5005332;28;51083;-65
2022/07/16 04:00:47;;;;;;;;;4.00;4.00;;;;;;;;5006522;28;51228;-65
2022/07/16 04:03:12;;;;;;;;;6.67;5.00;;;;;;;;5012411;28;50989;-65
2022/07/16 04:05:38;;;;;;;;;6.00;5.67;;;;;;;;5010586;28;51072;-65
2022/07/16 04:08:03;;;;;;;;;6.00;6.00;;;;;;;;5009624;28;51058;-65
2022/07/16 04:10:28;;;;;;;;;5.00;5.00;;;;;;;;5011770;28;54161;-65
2022/07/16 04:12:53;;;;;;;;;4.33;4.33;;;;;;;;5004401;28;51135;-65
2022/07/16 04:15:19;;;;;;;;;6.00;6.00;;;;;;;;5010374;28;50994;-64
2022/07/16 04:17:44;;;;;;;;;4.67;4.67;;;;;;;;5012335;28;51027;-65
2022/07/16 04:20:09;;;;;;;;;4.67;4.67;;;;;;;;5011739;28;51770;-66
2022/07/16 04:22:34;;;;;;;;;6.00;6.00;;;;;;;;5005240;28;51055;-65
2022/07/16 04:25:00;;;;;;;;;8.00;7.00;;;;;;;;5001640;28;50952;-65
2022/07/16 04:27:25;;;;;;;;;4.67;4.67;;;;;;;;5011817;28;50908;-65
2022/07/16 04:29:50;;;;;;;;;7.00;5.67;;;;;;;;5011085;28;51202;-65
2022/07/16 04:32:15;;;;;;;;;6.00;6.00;;;;;;;;5011658;28;51029;-65
2022/07/16 04:34:40;;;;;;;;;6.00;5.33;;;;;;;;5004384;28;51053;-64
2022/07/16 04:37:06;;;;;;;;;5.67;5.33;;;;;;;;5007296;28;51075;-66
2022/07/16 04:39:31;;;;;;;;;5.67;5.33;;;;;;;;5011505;28;51005;-64
2022/07/16 04:41:56;;;;;;;;;4.67;4.67;;;;;;;;5010194;28;51253;-65
2022/07/16 04:44:21;;;;;;;;;6.00;6.00;;;;;;;;4994313;28;50853;-65
2022/07/16 04:46:46;;;;;;;;;9.00;8.00;;;;;;;;5011174;28;51044;-66
2022/07/16 04:49:12;;;;;;;;;6.33;6.33;;;;;;;;5006026;28;52143;-65
2022/07/16 04:51:37;;;;;;;;;7.00;6.00;;;;;;;;5011141;28;51359;-64
2022/07/16 04:54:02;;;;;;;;;6.33;6.00;;;;;;;;4998038;28;51256;-65
2022/07/16 04:56:27;;;;;;;;;5.33;5.33;;;;;;;;5012014;28;50895;-65
2022/07/16 04:58:53;;;;;;;;;6.00;6.00;;;;;;;;4993501;28;51848;-65
2022/07/16 05:01:18;;;;;;;;;7.00;7.00;;;;;;;;5006512;28;51016;-64
2022/07/16 05:03:43;;;;;;;;;6.33;6.33;;;;;;;;5010974;28;50935;-65
2022/07/16 05:06:08;;;;;;;;;7.00;7.00;;;;;;;;5011442;28;51082;-64
2022/07/16 05:08:34;;;;;;;;;6.00;5.00;;;;;;;;4993472;28;51459;-64
2022/07/16 05:10:59;;;;;;;;;7.00;7.00;;;;;;;;5011282;28;51273;-65
2022/07/16 05:13:24;;;;;;;;;7.67;6.00;;;;;;;;5000300;28;51105;-65
2022/07/16 05:15:49;;;;;;;;;7.00;6.33;;;;;;;;4989967;28;51233;-65
2022/07/16 05:18:15;;;;;;;;;7.00;7.00;;;;;;;;4991770;28;51025;-65
2022/07/16 05:20:40;;;;;;;;;4.00;4.00;;;;;;;;5007713;28;51136;-64
2022/07/16 05:23:05;;;;;;;;;6.33;6.00;;;;;;;;4995873;28;51038;-64
2022/07/16 05:25:30;;;;;;;;;6.00;5.67;;;;;;;;5010275;28;51081;-65
2022/07/16 05:27:56;;;;;;;;;7.00;7.00;;;;;;;;4992817;28;53757;-64
2022/07/16 05:30:21;;;;;;;;;6.00;6.00;;;;;;;;5010964;28;51077;-64
2022/07/16 05:32:46;;;;;;;;;6.67;6.33;;;;;;;;4993267;28;51288;-65
2022/07/16 05:35:12;;;;;;;;;5.33;5.33;;;;;;;;5011742;28;50990;-65
2022/07/16 05:37:38;;;;;;;;;5.00;5.00;;;;;;;;4978658;28;53855;-66
2022/07/16 05:40:03;;;;;;;;;7.00;6.00;;;;;;;;5011117;28;51105;-65
2022/07/16 05:42:28;;;;;;;;;6.00;6.00;;;;;;;;5011189;28;51217;-65
2022/07/16 05:44:54;;;;;;;;;7.00;6.00;;;;;;;;5006319;28;51319;-65
2022/07/16 05:47:19;;;;;;;;;6.00;6.00;;;;;;;;5011792;28;51807;-66
2022/07/16 05:49:44;;;;;;;;;6.33;6.33;;;;;;;;5004976;28;51042;-65
2022/07/16 05:52:09;;;;;;;;;5.67;5.67;;;;;;;;5012377;28;51178;-65
2022/07/16 05:54:35;;;;;;;;;6.00;5.00;;;;;;;;5015021;28;50966;-65
2022/07/16 05:57:00;;;;;;;;;5.67;5.67;;;;;;;;5005781;28;51851;-67
2022/07/16 05:59:25;;;;;;;;;7.00;6.33;;;;;;;;4996642;28;50883;-65
2022/07/16 06:01:50;;;;;;;;;7.00;7.00;;;;;;;;5012762;28;50861;-65
2022/07/16 06:04:15;;;;;;;;;5.33;5.33;;;;;;;;5014133;28;51337;-66
2022/07/16 06:06:41;;;;;;;;;6.33;6.33;;;;;;;;5013707;28;50929;-66
2022/07/16 06:09:06;;;;;;;;;4.67;4.67;;;;;;;;5013937;28;50899;-66
2022/07/16 06:11:31;;;;;;;;;4.00;4.00;;;;;;;;4996123;28;51094;-66
2022/07/16 06:13:56;;;;;;;;;5.00;5.00;;;;;;;;5006370;28;51043;-66
2022/07/16 06:16:22;;;;;;;;;5.67;5.00;;;;;;;;5013518;28;52030;-66
2022/07/16 06:18:47;;;;;;;;;4.33;4.33;;;;;;;;4999790;28;51010;-67
2022/07/16 06:21:13;;;;;;;;;5.00;4.00;;;;;;;;4994308;28;50908;-66
2022/07/16 06:23:38;;;;;;;;;4.67;4.33;;;;;;;;4994559;28;51028;-66
2022/07/16 06:26:03;;;;;;;;;6.00;6.00;;;;;;;;5005817;28;51793;-67
2022/07/16 06:28:29;;;;;;;;;5.00;5.00;;;;;;;;4976540;28;50942;-67
2022/07/16 06:30:54;;;;;;;;;4.00;4.00;;;;;;;;5016078;28;50942;-66
2022/07/16 06:33:19;;;;;;;;;5.33;5.33;;;;;;;;4976777;28;51107;-65
2022/07/16 06:35:45;;;;;;;;;4.67;4.00;;;;;;;;4993771;28;51950;-65
2022/07/16 06:38:10;;;;;;;;;5.33;5.33;;;;;;;;5000172;28;51015;-66
2022/07/16 06:40:35;;;;;;;;;5.00;5.00;;;;;;;;5006504;28;50953;-66
2022/07/16 06:43:00;;;;;;;;;6.00;5.00;;;;;;;;4994572;28;51014;-66
2022/07/16 06:45:26;;;;;;;;;3.67;3.67;;;;;;;;5007813;28;52207;-66
2022/07/16 06:47:51;;;;;;;;;5.00;4.00;;;;;;;;5012600;28;51338;-67
2022/07/16 06:50:16;;;;;;;;;5.00;4.00;;;;;;;;5008838;28;50981;-66
2022/07/16 06:52:42;;;;;;;;;6.00;6.00;;;;;;;;5014169;28;51116;-67
2022/07/16 06:55:07;;;;;;;;;5.00;4.00;;;;;;;;5002037;28;50989;-67
2022/07/16 06:57:33;;;;;;;;;4.33;4.33;;;;;;;;5013221;28;51059;-66
2022/07/16 06:59:58;;;;;;;;;4.67;4.67;;;;;;;;5013026;28;51318;-66
2022/07/16 07:02:23;;;;;;;;;4.50;4.50;;;;;;;;5013051;28;51396;-66
2022/07/16 07:04:49;;;;;;;;;5.00;5.00;;;;;;;;5013051;28;51088;-66
2022/07/16 07:07:14;;;;;;;;;5.33;5.33;;;;;;;;5013689;28;50945;-66
2022/07/16 07:09:39;;;;;;;;;4.67;4.00;;;;;;;;5013648;28;50909;-67
2022/07/16 07:12:04;;;;;;;;;4.67;4.67;;;;;;;;5014100;28;51248;-67
2022/07/16 07:14:30;;;;;;;;;4.67;4.67;;;;;;;;5006599;28;51704;-67
2022/07/16 07:16:56;;;;;;;;;5.00;5.00;;;;;;;;5013432;28;50892;-67
2022/07/16 07:19:21;;;;;;;;;4.33;4.33;;;;;;;;5013312;28;51357;-66
2022/07/16 07:21:46;;;;;;;;;6.00;6.00;;;;;;;;5013632;28;51106;-66
2022/07/16 07:24:12;;;;;;;;;5.33;5.00;;;;;;;;5012422;28;52031;-67
2022/07/16 07:26:37;;;;;;;;;4.00;4.00;;;;;;;;5003134;28;50922;-68
2022/07/16 07:29:02;;;;;;;;;6.00;6.00;;;;;;;;4995967;28;50845;-67
2022/07/16 07:31:27;;;;;;;;;4.00;4.00;;;;;;;;5013601;28;50941;-68
2022/07/16 07:33:52;;;;;;;;;4.00;4.00;;;;;;;;5013103;28;51773;-68
2022/07/16 07:36:19;;;;;;;;;4.33;4.33;;;;;;;;5012355;28;51082;-67
2022/07/16 07:38:44;;;;;;;;;4.33;4.33;;;;;;;;4996659;28;51158;-68
2022/07/16 07:41:09;;;;;;;;;4.67;4.00;;;;;;;;4975969;28;51346;-67
2022/07/16 07:43:34;;;;;;;;;4.33;4.33;;;;;;;;5002880;28;51749;-67
2022/07/16 07:45:59;;;;;;;;;4.00;4.00;;;;;;;;5012964;28;51082;-67
2022/07/16 07:48:25;;;;;;;;;4.00;4.00;;;;;;;;5012506;28;51177;-67
2022/07/16 07:50:50;;;;;;;;;3.00;3.00;;;;;;;;5001518;28;51076;-67
2022/07/16 07:53:15;;;;;;;;;3.00;3.00;;;;;;;;5012688;28;52156;-66
2022/07/16 07:55:41;;;;;;;;;4.00;4.00;;;;;;;;5012955;28;51175;-68
2022/07/16 07:58:06;;;;;;;;;5.00;5.00;;;;;;;;5013272;28;50912;-67
2022/07/16 08:00:32;;;;;;;;;4.67;4.67;;;;;;;;5011144;28;51079;-68
2022/07/16 08:02:57;;;;;;;;;5.00;5.00;;;;;;;;5012887;28;51548;-69
2022/07/16 08:05:23;;;;;;;;;4.00;4.00;;;;;;;;5012495;28;51085;-68
2022/07/16 08:07:48;;;;;;;;;3.00;3.00;;;;;;;;5012708;28;51233;-67
2022/07/16 08:10:13;;;;;;;;;5.67;5.67;;;;;;;;5011901;28;51308;-67
2022/07/16 08:12:39;;;;;;;;;4.33;3.33;;;;;;;;5010914;28;52797;-68
2022/07/16 08:15:05;;;;;;;;;4.00;4.00;;;;;;;;5011500;28;50966;-69
2022/07/16 08:17:31;;;;;;;;;4.00;4.00;;;;;;;;4994285;28;51180;-69
2022/07/16 08:19:56;;;;;;;;;3.67;3.00;;;;;;;;5012361;28;51133;-68
2022/07/16 08:22:21;;;;;;;;;3.67;3.00;;;;;;;;5012152;28;51660;-67
2022/07/16 08:27:30;;;;;;;;;4.00;3.00;;;;;;;;4992599;28;51005;-68
2022/07/16 08:29:55;;;;;;;;;3.33;3.33;;;;;;;;5002292;28;51403;-68
2022/07/16 08:32:21;;;;;;;;;3.00;3.00;;;;;;;;4994400;28;53789;-68
2022/07/16 08:34:46;;;;;;;;;4.67;4.00;;;;;;;;5011703;28;50871;-68
2022/07/16 08:37:11;;;;;;;;;3.00;3.00;;;;;;;;5004579;28;51056;-68
2022/07/16 08:39:37;;;;;;;;;3.67;3.67;;;;;;;;4983715;28;50934;-67
2022/07/16 08:42:03;;;;;;;;;4.00;4.00;;;;;;;;5008306;28;51633;-68
2022/07/16 08:44:29;;;;;;;;;3.00;3.00;;;;;;;;4988372;28;51227;-68
2022/07/16 08:46:54;;;;;;;;;4.00;4.00;;;;;;;;5011363;28;50986;-65
2022/07/16 08:49:20;;;;;;;;;3.00;3.00;;;;;;;;5007777;28;50930;-68
2022/07/16 08:51:46;;;;;;;;;3.00;2.67;;;;;;;;5005493;28;51883;-68
2022/07/16 08:54:12;;;;;;;;;4.00;3.00;;;;;;;;5004362;28;50994;-67
2022/07/16 08:56:38;;;;;;;;;3.00;3.00;;;;;;;;5010639;28;52159;-67
2022/07/16 08:59:03;;;;;;;;;3.00;3.00;;;;;;;;5010601;28;51224;-67
2022/07/16 09:01:31;;;;;;;;;5.00;4.67;;;;;;;;5004453;28;51153;-66
2022/07/16 09:03:59;;;;;;;;;4.33;3.33;;;;;;;;5004318;28;51038;-67
2022/07/16 09:06:25;;;;;;;;;4.00;4.00;;;;;;;;5007175;28;51096;-70
2022/07/16 09:08:51;;;;;;;;;4.00;3.00;;;;;;;;5010668;28;51388;-68
2022/07/16 09:11:24;;;;;;;;;5.67;4.67;;;;;;;;4999613;28;51778;-69
2022/07/16 09:13:59;;;;;;;;;13.50;13.50;;;;;;;;5004830;28;50917;-68
2022/07/16 09:16:32;;;;;;;;;7.00;6.00;;;;;;;;5008929;28;51152;-69
2022/07/16 09:19:01;;;;;;;;;7.67;7.67;;;;;;;;5006034;28;50924;-68
2022/07/16 09:21:26;;;;;;;;;5.00;5.00;;;;;;;;5002785;28;50994;-67
2022/07/16 09:23:51;;;;;;;;;3.00;3.00;;;;;;;;5008808;28;51174;-68
2022/07/16 09:26:16;;;;;;;;;4.67;4.33;;;;;;;;5013787;28;51378;-69
2022/07/16 09:28:45;;;;;;;;;3.33;3.33;;;;;;;;5006059;28;50836;-67
2022/07/16 09:31:11;;;;;;;;;4.00;4.00;;;;;;;;5007068;28;50924;-67
2022/07/16 09:33:36;;;;;;;;;3.00;3.00;;;;;;;;4994777;28;51046;-68
2022/07/16 09:36:07;;;;;;;;;4.00;3.00;;;;;;;;4996493;28;50927;-68
2022/07/16 09:38:47;;;;;;;;;4.00;4.00;;;;;;;;4996355;28;51113;-68
2022/07/16 09:41:14;;;;;;;;;5.00;5.00;;;;;;;;5013774;28;51056;-68
2022/07/16 09:43:41;;;;;;;;;3.00;3.00;;;;;;;;4995527;28;51169;-68
2022/07/16 09:46:06;;;;;;;;;5.00;4.00;;;;;;;;4994522;28;51093;-68
2022/07/16 09:48:35;;;;;;;;;4.33;4.33;;;;;;;;4994325;28;51196;-69
2022/07/16 09:51:18;;;;;;;;;4.00;4.00;;;;;;;;5006888;28;51113;-67
2022/07/16 09:53:46;;;;;;;;;4.33;4.33;;;;;;;;5007311;28;51065;-68
2022/07/16 09:56:13;;;;;;;;;4.00;4.00;;;;;;;;4991982;28;51056;-68
2022/07/16 09:58:38;;;;;;;;;3.00;3.00;;;;;;;;4996290;28;50842;-68
2022/07/16 10:01:04;;;;;;;;;4.00;4.00;;;;;;;;5003381;28;51810;-68
2022/07/16 10:03:30;;;;;;;;;5.33;4.67;;;;;;;;5002330;28;51615;-68
2022/07/16 10:05:56;;;;;;;;;5.67;5.00;;;;;;;;4993859;28;51120;-68
2022/07/16 10:08:21;;;;;;;;;3.00;3.00;;;;;;;;5002136;28;51278;-68
2022/07/16 10:10:47;;;;;;;;;3.67;3.67;;;;;;;;5003592;28;51669;-68
2022/07/16 10:13:12;;;;;;;;;3.67;3.67;;;;;;;;5000709;28;51199;-69
2022/07/16 10:15:38;;;;;;;;;5.00;4.00;;;;;;;;5013553;28;51105;-69
2022/07/16 10:18:04;;;;;;;;;3.67;3.67;;;;;;;;5012681;28;51046;-69
2022/07/16 10:20:34;;;;;;;;;5.00;4.00;;;;;;;;4992551;28;51088;-68
2022/07/16 10:23:04;;;;;;;;;3.67;3.67;;;;;;;;4996059;28;53108;-70
2022/07/16 10:25:30;;;;;;;;;5.00;5.00;;;;;;;;5007907;28;51156;-68
2022/07/16 10:27:56;;;;;;;;;4.67;4.67;;;;;;;;5006939;28;50892;-67
2022/07/16 10:30:21;;;;;;;;;5.67;5.67;;;;;;;;5012321;28;51858;-68
2022/07/16 10:32:58;;;;;;;;;6.67;5.00;;;;;;;;5012940;28;50816;-68
2022/07/16 10:35:28;;;;;;;;;5.00;5.00;;;;;;;;5012279;28;50873;-68
2022/07/16 10:38:04;;;;;;;;;5.00;5.00;;;;;;;;4995471;28;51311;-68
2022/07/16 10:40:30;;;;;;;;;7.33;7.33;;;;;;;;5011309;28;51867;-69
2022/07/16 10:43:11;;;;;;;;;6.33;5.67;;;;;;;;4998835;28;51079;-69
2022/07/16 10:45:50;;;;;;;;;4.67;3.67;;;;;;;;4995967;28;50939;-68
2022/07/16 10:48:16;;;;;;;;;5.00;5.00;;;;;;;;4990210;28;50893;-69
2022/07/16 10:51:01;;;;;;;;;3.33;3.33;;;;;;;;5012534;28;51793;-69
2022/07/16 10:53:26;;;;;;;;;5.33;5.33;;;;;;;;5011619;28;50982;-70
2022/07/16 10:55:52;;;;;;;;;7.00;5.33;;;;;;;;4997148;28;51221;-70
2022/07/16 10:58:22;;;;;;;;;5.00;5.00;;;;;;;;4982611;28;51113;-71
2022/07/16 11:00:47;;;;;;;;;4.00;4.00;;;;;;;;5002201;28;51220;-69
2022/07/16 11:03:14;;;;;;;;;4.00;4.00;;;;;;;;4992133;28;51183;-70
2022/07/16 11:05:41;;;;;;;;;8.00;7.67;;;;;;;;5005740;28;51091;-70
2022/07/16 11:08:10;;;;;;;;;8.00;7.67;;;;;;;;4993800;28;50830;-68
2022/07/16 11:10:37;;;;;;;;;4.67;4.67;;;;;;;;4975349;28;51765;-68
2022/07/16 11:13:09;;;;;;;;;5.00;4.67;;;;;;;;4971299;28;51041;-68
2022/07/16 11:15:34;;;;;;;;;5.00;5.00;;;;;;;;4989467;28;50918;-69
2022/07/16 11:18:00;;;;;;;;;5.33;5.33;;;;;;;;4982863;28;51106;-69
2022/07/16 11:20:35;;;;;;;;;3.00;3.00;;;;;;;;4971559;28;52919;-69
2022/07/16 11:23:04;;;;;;;;;3.33;3.33;;;;;;;;4973033;28;51177;-69
2022/07/16 11:25:29;;;;;;;;;4.00;4.00;;;;;;;;4973163;28;51287;-69
2022/07/16 11:27:59;;;;;;;;;6.00;5.33;;;;;;;;4988683;28;51172;-68
2022/07/16 11:30:24;;;;;;;;;5.00;5.00;;;;;;;;4973257;28;51937;-68
2022/07/16 11:32:50;;;;;;;;;4.00;3.67;;;;;;;;4971554;28;51199;-68
2022/07/16 11:35:15;;;;;;;;;4.00;4.00;;;;;;;;4972992;28;51048;-68
2022/07/16 11:37:48;;;;;;;;;10.33;9.33;;;;;;;;4979528;28;51088;-68
2022/07/16 11:40:14;;;;;;;;;5.00;4.33;;;;;;;;4989306;28;52234;-68
2022/07/16 11:42:39;;;;;;;;;5.00;5.00;;;;;;;;4976264;28;51031;-68
2022/07/16 11:45:06;;;;;;;;;9.00;8.67;;;;;;;;4972978;28;51113;-69
2022/07/16 11:47:31;;;;;;;;;4.67;4.00;;;;;;;;5000581;28;51212;-69
2022/07/16 11:49:57;;;;;;;;;5.00;4.00;;;;;;;;4984373;28;51197;-69
2022/07/16 11:52:24;;;;;;;;;6.00;6.00;;;;;;;;4987993;28;50967;-70
2022/07/16 11:54:50;;;;;;;;;4.00;4.00;;;;;;;;4979900;28;51041;-69
2022/07/16 11:57:15;;;;;;;;;7.00;6.00;;;;;;;;4993131;28;51294;-69
2022/07/16 11:59:47;;;;;;;;;3.67;3.67;;;;;;;;4983816;28;52988;-70
2022/07/16 12:02:13;;;;;;;;;4.67;4.67;;;;;;;;5004377;28;51126;-68
2022/07/16 12:04:46;;;;;;;;;6.33;6.33;;;;;;;;4992425;28;51065;-68
2022/07/16 12:07:16;;;;;;;;;11.00;10.00;;;;;;;;4992611;28;50917;-68
2022/07/16 12:09:43;;;;;;;;;6.00;6.00;;;;;;;;4990979;28;52110;-68
2022/07/16 12:12:22;;;;;;;;;4.33;4.33;;;;;;;;4988582;28;51109;-68
2022/07/16 12:14:52;;;;;;;;;6.33;5.33;;;;;;;;5004090;28;51298;-69
2022/07/16 12:17:22;;;;;;;;;6.33;6.00;;;;;;;;5009825;28;50969;-68
2022/07/16 12:20:02;;;;;;;;;8.00;7.00;;;;;;;;5011473;28;51299;-68
2022/07/16 12:22:43;;;;;;;;;7.00;7.00;;;;;;;;5011351;28;50864;-68
2022/07/16 12:25:16;;;;;;;;;7.33;7.33;;;;;;;;4995866;28;50936;-68
2022/07/16 12:27:45;;;;;;;;;7.00;6.33;;;;;;;;4989798;28;51083;-69
2022/07/16 12:30:11;;;;;;;;;4.00;4.00;;;;;;;;4976539;28;53210;-68
2022/07/16 12:32:47;;;;;;;;;5.33;5.00;;;;;;;;5012235;28;51003;-68
2022/07/16 12:35:31;;;;;;;;;5.67;5.00;;;;;;;;5004955;28;51214;-67
2022/07/16 12:37:56;;;;;;;;;5.67;5.00;;;;;;;;5006461;28;51176;-68
2022/07/16 12:40:22;;;;;;;;;9.00;8.33;;;;;;;;5011767;28;51299;-68
2022/07/16 12:42:47;;;;;;;;;6.00;6.00;;;;;;;;4994045;28;50982;-68
2022/07/16 12:45:12;;;;;;;;;7.00;5.67;;;;;;;;5005534;28;51088;-68
2022/07/16 12:47:37;;;;;;;;;5.00;4.67;;;;;;;;5003995;28;51321;-68
2022/07/16 12:50:04;;;;;;;;;6.00;5.00;;;;;;;;5011387;28;50993;-68
2022/07/16 12:52:29;;;;;;;;;4.00;4.00;;;;;;;;5011902;28;50948;-68
2022/07/16 13:00:22;;;;;;;;;9.00;8.67;;;;;;;;5000806;28;51649;-68
2022/07/16 13:02:47;;;;;;;;;5.00;5.00;;;;;;;;5014078;28;50913;-69
2022/07/16 13:05:12;;;;;;;;;9.00;8.00;;;;;;;;5014117;28;51246;-69
2022/07/16 13:07:38;;;;;;;;;7.00;7.00;;;;;;;;5014670;28;51050;-69
2022/07/16 13:10:03;;;;;;;;;6.67;5.67;;;;;;;;5014490;28;51854;-68
2022/07/16 13:12:28;;;;;;;;;6.00;6.00;;;;;;;;5010305;28;50998;-67
2022/07/16 13:14:54;;;;;;;;;5.33;5.33;;;;;;;;5009704;28;50892;-67
2022/07/16 13:17:19;;;;;;;;;6.00;5.00;;;;;;;;5013552;28;51319;-68
2022/07/16 13:19:45;;;;;;;;;5.67;5.67;;;;;;;;4996572;28;53600;-68
2022/07/16 13:22:10;;;;;;;;;6.00;6.00;;;;;;;;5014435;28;50994;-68
2022/07/16 13:24:35;;;;;;;;;8.67;8.00;;;;;;;;5003873;28;51309;-68
2022/07/16 13:27:01;;;;;;;;;7.67;7.67;;;;;;;;5008134;28;51377;-67
2022/07/16 13:29:26;;;;;;;;;6.00;6.00;;;;;;;;5014381;28;51114;-68
2022/07/16 13:31:51;;;;;;;;;4.33;4.33;;;;;;;;5014062;28;51055;-68
2022/07/16 13:34:18;;;;;;;;;6.00;6.00;;;;;;;;4992636;28;51344;-67
2022/07/16 13:36:43;;;;;;;;;6.33;6.00;;;;;;;;5000088;28;50988;-69
2022/07/16 13:39:08;;;;;;;;;12.75;11.50;;;;;;;;4994144;28;53212;-67
2022/07/16 13:41:34;;;;;;;;;8.67;8.67;;;;;;;;4994356;28;51098;-69
2022/07/16 13:43:59;;;;;;;;;9.00;8.00;;;;;;;;4994655;28;51281;-68
2022/07/16 13:46:25;;;;;;;;;11.50;11.00;;;;;;;;4976695;28;51027;-67
2022/07/16 13:48:50;;;;;;;;;7.00;6.67;;;;;;;;4999758;28;51878;-68
2022/07/16 13:51:15;;;;;;;;;14.75;13.25;;;;;;;;5004228;28;51054;-67
2022/07/16 13:53:41;;;;;;;;;9.33;9.33;;;;;;;;5014041;28;51047;-68
2022/07/16 13:56:06;;;;;;;;;10.33;9.33;;;;;;;;5014406;28;51065;-70
2022/07/16 13:58:31;;;;;;;;;12.00;11.33;;;;;;;;5013067;28;52815;-67
2022/07/16 14:00:59;;;;;;;;;7.33;7.33;;;;;;;;5007794;28;51152;-68
2022/07/16 14:03:25;;;;;;;;;10.00;8.00;;;;;;;;5013475;28;51013;-68
2022/07/16 14:05:52;;;;;;;;;9.00;8.33;;;;;;;;5013373;28;51077;-68
2022/07/16 14:08:18;;;;;;;;;11.00;10.50;;;;;;;;4995114;28;52913;-68
2022/07/16 14:10:43;;;;;;;;;12.50;11.00;;;;;;;;5012786;28;51177;-67
2022/07/16 14:13:09;;;;;;;;;12.33;10.33;;;;;;;;4994436;28;51118;-68
2022/07/16 14:15:35;;;;;;;;;10.00;9.00;;;;;;;;5011771;28;50911;-67
2022/07/16 14:18:01;;;;;;;;;14.75;13.75;;;;;;;;4993072;28;52825;-68
2022/07/16 14:20:26;;;;;;;;;14.75;13.75;;;;;;;;4992925;28;51015;-67
2022/07/16 14:22:52;;;;;;;;;8.00;8.00;;;;;;;;4984571;28;50907;-68
2022/07/16 14:25:17;;;;;;;;;14.00;13.00;;;;;;;;4994082;28;50968;-68
2022/07/16 14:27:42;;;;;;;;;17.25;16.75;;;;;;;;5012474;28;51491;-69
2022/07/16 14:30:11;;;;;;;;;15.67;14.67;;;;;;;;4994990;28;50967;-67
2022/07/16 14:32:37;;;;;;;;;11.33;10.67;;;;;;;;5013264;28;51033;-67
2022/07/16 14:35:03;;;;;;;;;11.33;11.00;;;;;;;;5005232;28;51343;-68
2022/07/16 14:37:29;;;;;;;;;9.33;9.00;;;;;;;;4958850;28;54228;-68
2022/07/16 14:39:54;;;;;;;;;15.75;13.00;;;;;;;;4993302;28;51178;-68
2022/07/16 14:42:20;;;;;;;;;10.67;10.00;;;;;;;;4975548;28;51809;-68
2022/07/16 14:44:45;;;;;;;;;10.67;10.00;;;;;;;;4993807;28;51196;-68
2022/07/16 14:47:10;;;;;;;;;7.33;7.33;;;;;;;;5002292;28;51613;-68